createdAt,value
2022-09-07T00:01:54.638Z,3.57
2022-09-07T00:04:21.836Z,4.40
2022-09-07T00:06:49.733Z,3.53
2022-09-07T00:09:16.466Z,3.77
2022-09-07T00:11:43.187Z,3.90
2022-09-07T00:14:09.858Z,3.83
2022-09-07T00:16:36.616Z,4.07
2022-09-07T00:19:04.821Z,4.10
2022-09-07T00:21:31.943Z,4.30
2022-09-07T00:23:58.680Z,3.70
2022-09-07T00:26:30.718Z,3.70
2022-09-07T00:28:59.857Z,3.80
2022-09-07T00:31:27.691Z,3.60
2022-09-07T00:33:57.270Z,3.97
2022-09-07T00:36:23.997Z,3.73
2022-09-07T00:38:50.858Z,3.90
2022-09-07T00:41:18.604Z,3.87
2022-09-07T00:43:48.595Z,4.00
2022-09-07T00:46:32.183Z,4.37
2022-09-07T00:49:05.083Z,4.10
2022-09-07T00:51:36.739Z,3.43
2022-09-07T00:54:08.871Z,3.70
2022-09-07T00:56:40.994Z,3.70
2022-09-07T00:59:09.444Z,3.87
2022-09-07T01:01:37.523Z,4.63
2022-09-07T01:04:05.138Z,3.60
2022-09-07T01:06:34.542Z,4.13
2022-09-07T01:09:10.229Z,4.33
2022-09-07T01:11:37.649Z,4.07
2022-09-07T01:14:07.676Z,4.07
2022-09-07T01:17:15.682Z,3.90
2022-09-07T01:20:13.437Z,3.63
2022-09-07T01:22:54.506Z,3.80
2022-09-07T01:25:34.438Z,4.27
2022-09-07T01:28:11.606Z,3.67
2022-09-07T01:30:40.857Z,4.30
2022-09-07T01:33:37.406Z,3.90
2022-09-07T01:36:25.734Z,4.00
2022-09-07T01:38:59.059Z,4.13
2022-09-07T01:41:39.195Z,3.90
2022-09-07T01:44:36.140Z,3.77
2022-09-07T01:47:08.401Z,4.13
2022-09-07T01:50:19.775Z,3.57
2022-09-07T01:52:55.087Z,4.07
2022-09-07T01:55:36.723Z,3.33
2022-09-07T01:58:21.976Z,4.57
2022-09-07T02:00:58.032Z,4.00
2022-09-07T02:03:51.219Z,4.10
2022-09-07T02:06:34.812Z,4.50
2022-09-07T02:09:27.327Z,4.57
2022-09-07T02:11:54.786Z,4.53
2022-09-07T02:14:43.926Z,4.43
2022-09-07T02:17:26.887Z,4.87
2022-09-07T02:20:00.176Z,3.63
2022-09-07T02:22:32.966Z,3.40
2022-09-07T02:25:03.345Z,4.40
2022-09-07T02:27:39.586Z,3.67
2022-09-07T02:30:06.855Z,4.07
2022-09-07T02:32:33.544Z,4.47
2022-09-07T02:35:00.245Z,4.50
2022-09-07T02:37:29.031Z,4.00
2022-09-07T02:39:56.002Z,3.90
2022-09-07T02:42:22.821Z,4.13
2022-09-07T02:44:49.525Z,4.50
2022-09-07T02:47:24.973Z,4.17
2022-09-07T02:50:13.324Z,3.93
2022-09-07T02:53:08.526Z,4.10
2022-09-07T02:56:03.112Z,7.93
2022-09-07T02:58:35.770Z,3.90
2022-09-07T03:01:07.506Z,4.17
2022-09-07T03:04:06.543Z,3.53
2022-09-07T03:06:39.305Z,9.00
2022-09-07T03:09:11.460Z,4.23
2022-09-07T03:11:38.532Z,4.50
2022-09-07T03:14:17.276Z,3.97
2022-09-07T03:16:44.700Z,3.90
2022-09-07T03:19:11.409Z,4.03
2022-09-07T03:21:38.093Z,4.43
2022-09-07T03:24:05.398Z,4.37
2022-09-07T03:26:32.177Z,4.27
2022-09-07T03:28:59.498Z,4.27
2022-09-07T03:31:26.550Z,4.27
2022-09-07T03:33:54.434Z,4.53
2022-09-07T03:36:21.284Z,4.20
2022-09-07T03:38:47.909Z,4.40
2022-09-07T03:41:14.691Z,4.30
2022-09-07T03:43:41.375Z,3.93
2022-09-07T03:46:10.555Z,4.17
2022-09-07T03:48:39.134Z,4.43
2022-09-07T03:51:07.802Z,4.03
2022-09-07T03:53:37.244Z,4.63
2022-09-07T03:56:07.179Z,4.23
2022-09-07T03:58:35.138Z,4.10
2022-09-07T04:01:16.411Z,3.70
2022-09-07T04:03:44.301Z,4.20
2022-09-07T04:06:11.712Z,4.20
2022-09-07T04:08:40.257Z,3.90
2022-09-07T04:11:08.511Z,4.00
2022-09-07T04:13:36.747Z,3.93
2022-09-07T04:16:11.728Z,3.60
2022-09-07T04:18:38.365Z,3.73
2022-09-07T04:21:05.122Z,4.17
2022-09-07T04:23:32.396Z,3.83
2022-09-07T04:25:59.224Z,3.90
2022-09-07T04:28:26.188Z,4.30
2022-09-07T04:30:52.992Z,4.23
2022-09-07T04:33:19.984Z,4.47
2022-09-07T04:35:46.610Z,4.10
2022-09-07T04:38:14.947Z,4.47
2022-09-07T04:40:42.288Z,4.07
2022-09-07T04:43:09.714Z,5.33
2022-09-07T04:45:37.722Z,4.03
2022-09-07T04:48:05.258Z,4.63
2022-09-07T04:50:31.964Z,4.80
2022-09-07T04:52:58.619Z,5.20
2022-09-07T04:55:25.247Z,4.90
2022-09-07T04:57:51.930Z,4.33
2022-09-07T05:00:18.834Z,4.33
2022-09-07T05:02:45.565Z,4.93
2022-09-07T05:05:12.313Z,4.93
2022-09-07T05:07:38.966Z,5.43
2022-09-07T05:10:05.820Z,5.20
2022-09-07T05:12:32.851Z,4.87
2022-09-07T05:14:59.677Z,4.97
2022-09-07T05:17:26.411Z,4.77
2022-09-07T05:19:54.893Z,5.10
2022-09-07T05:22:22.398Z,5.70
2022-09-07T05:24:49.040Z,4.80
2022-09-07T05:27:15.715Z,5.40
2022-09-07T05:32:29.834Z,5.60
2022-09-07T05:34:56.514Z,5.13
2022-09-07T05:37:23.164Z,5.17
2022-09-07T05:39:51.941Z,5.67
2022-09-07T05:42:18.612Z,5.17
2022-09-07T05:44:45.799Z,5.40
2022-09-07T05:47:13.234Z,5.10
2022-09-07T05:49:40.207Z,4.73
2022-09-07T05:52:06.959Z,5.23
2022-09-07T05:54:33.693Z,4.90
2022-09-07T05:57:00.501Z,4.50
2022-09-07T05:59:27.184Z,5.10
2022-09-07T06:01:53.881Z,5.03
2022-09-07T06:04:20.680Z,5.10
2022-09-07T06:06:59.255Z,5.10
2022-09-07T06:09:34.422Z,5.30
2022-09-07T06:12:04.645Z,5.87
2022-09-07T06:14:32.196Z,5.30
2022-09-07T06:16:58.993Z,5.90
2022-09-07T06:19:25.691Z,4.90
2022-09-07T06:21:52.383Z,4.97
2022-09-07T06:24:19.103Z,5.07
2022-09-07T06:26:45.768Z,4.83
2022-09-07T06:29:12.555Z,4.67
2022-09-07T06:34:26.424Z,4.80
2022-09-07T06:36:53.122Z,5.30
2022-09-07T06:39:19.759Z,4.77
2022-09-07T06:42:01.820Z,5.23
2022-09-07T06:44:28.448Z,5.13
2022-09-07T06:49:28.747Z,4.80
2022-09-07T06:51:55.582Z,4.00
2022-09-07T06:57:14.615Z,4.83
2022-09-07T06:59:41.290Z,4.40
2022-09-07T07:02:11.628Z,4.00
2022-09-07T07:04:41.146Z,4.83
2022-09-07T07:07:12.685Z,4.10
2022-09-07T07:09:40.220Z,3.93
2022-09-07T07:12:07.172Z,4.23
2022-09-07T07:14:37.244Z,4.33
2022-09-07T07:17:06.726Z,3.73
2022-09-07T07:19:33.346Z,4.03
2022-09-07T07:22:36.013Z,4.33
2022-09-07T07:24:48.608Z,3.80
2022-09-07T07:27:15.467Z,4.30
2022-09-07T07:29:42.129Z,4.23
2022-09-07T07:32:08.859Z,3.63
2022-09-07T07:34:35.578Z,3.60
2022-09-07T07:37:02.354Z,3.93
2022-09-07T07:42:15.703Z,3.63
2022-09-07T07:44:42.314Z,3.60
2022-09-07T07:47:08.922Z,3.27
2022-09-07T07:49:35.592Z,2.90
2022-09-07T07:54:48.987Z,3.00
2022-09-07T07:57:18.890Z,3.13
2022-09-07T07:59:45.494Z,3.30
2022-09-07T08:02:15.807Z,3.50
2022-09-07T08:04:42.671Z,3.13
2022-09-07T08:07:11.973Z,3.77
2022-09-07T08:09:43.624Z,3.53
2022-09-07T08:12:16.973Z,3.50
2022-09-07T08:14:43.800Z,3.13
2022-09-07T08:17:13.012Z,3.30
2022-09-07T08:19:39.966Z,3.50
2022-09-07T08:22:07.840Z,3.83
2022-09-07T08:24:34.697Z,3.13
2022-09-07T08:27:01.972Z,3.37
2022-09-07T08:29:32.579Z,2.97
2022-09-07T08:32:01.044Z,3.30
2022-09-07T08:34:27.745Z,3.20
2022-09-07T08:36:54.871Z,3.27
2022-09-07T08:39:21.529Z,3.30
2022-09-07T08:42:14.855Z,3.33
2022-09-07T08:44:48.937Z,3.20
2022-09-07T08:47:28.578Z,3.43
2022-09-07T08:49:58.091Z,3.30
2022-09-07T08:52:57.085Z,3.10
2022-09-07T08:55:34.834Z,3.23
2022-09-07T08:58:48.222Z,3.20
2022-09-07T09:01:36.555Z,2.70
2022-09-07T09:04:18.522Z,3.30
2022-09-07T09:06:53.805Z,2.80
2022-09-07T09:09:42.287Z,3.30
2022-09-07T09:12:11.983Z,3.07
2022-09-07T09:14:53.881Z,3.30
2022-09-07T09:17:47.060Z,3.23
2022-09-07T09:20:37.205Z,3.20
2022-09-07T09:23:15.180Z,3.47
2022-09-07T09:25:56.772Z,3.20
2022-09-07T09:28:24.734Z,3.23
2022-09-07T09:30:53.237Z,4.10
2022-09-07T09:33:20.363Z,3.43
2022-09-07T09:35:52.788Z,3.67
2022-09-07T09:38:34.567Z,3.70
2022-09-07T09:41:15.284Z,3.60
2022-09-07T09:43:46.763Z,3.03
2022-09-07T09:46:35.277Z,3.13
2022-09-07T09:49:28.171Z,3.17
2022-09-07T09:54:48.651Z,3.30
2022-09-07T09:57:16.902Z,3.63
2022-09-07T10:00:02.758Z,2.90
2022-09-07T10:05:27.697Z,2.97
2022-09-07T10:07:57.800Z,3.53
2022-09-07T10:10:26.594Z,3.30
2022-09-07T10:12:55.142Z,3.10
2022-09-07T10:15:29.198Z,3.10
2022-09-07T10:17:56.967Z,3.47
2022-09-07T10:20:35.568Z,3.30
2022-09-07T10:23:03.238Z,2.87
2022-09-07T10:25:41.877Z,3.07
2022-09-07T10:28:12.633Z,3.07
2022-09-07T10:30:56.221Z,2.90
2022-09-07T10:34:25.728Z,3.17
2022-09-07T10:36:57.045Z,2.80
2022-09-07T10:39:28.011Z,2.80
2022-09-07T10:42:23.600Z,2.80
2022-09-07T10:44:53.142Z,2.90
2022-09-07T10:47:25.915Z,3.17
2022-09-07T10:50:22.778Z,2.93
2022-09-07T10:52:55.839Z,3.23
2022-09-07T10:55:39.257Z,3.13
2022-09-07T10:59:01.593Z,3.20
2022-09-07T11:01:26.951Z,2.90
2022-09-07T11:04:31.074Z,2.90
2022-09-07T11:07:15.905Z,3.10
2022-09-07T11:10:34.972Z,2.93
2022-09-07T11:13:05.814Z,2.83
2022-09-07T11:15:50.743Z,2.80
2022-09-07T11:18:40.200Z,3.17
2022-09-07T11:21:14.658Z,3.47
2022-09-07T11:23:45.863Z,2.70
2022-09-07T11:26:36.127Z,3.00
2022-09-07T11:29:32.145Z,2.53
2022-09-07T11:32:06.769Z,3.00
2022-09-07T11:34:45.143Z,2.87
2022-09-07T11:37:20.460Z,2.80
2022-09-07T11:40:00.666Z,3.17
2022-09-07T11:42:50.349Z,3.07
2022-09-07T11:45:41.545Z,3.23
2022-09-07T11:48:21.476Z,3.10
2022-09-07T11:50:53.232Z,3.03
2022-09-07T11:53:27.720Z,3.30
2022-09-07T11:55:59.255Z,2.90
2022-09-07T11:58:28.523Z,2.83
2022-09-07T12:01:13.583Z,2.90
2022-09-07T12:04:13.241Z,3.37
2022-09-07T12:07:06.373Z,2.90
2022-09-07T12:09:32.983Z,2.97
2022-09-07T12:12:18.431Z,3.37
2022-09-07T12:14:47.693Z,3.63
2022-09-07T12:17:29.639Z,3.10
2022-09-07T12:20:23.669Z,3.27
2022-09-07T12:23:15.175Z,2.87
2022-09-07T12:25:52.354Z,3.00
2022-09-07T12:28:24.650Z,3.40
2022-09-07T12:31:04.456Z,3.10
2022-09-07T12:33:39.488Z,5.17
2022-09-07T12:36:27.594Z,3.07
2022-09-07T12:39:25.737Z,3.10
2022-09-07T12:45:28.915Z,3.10
2022-09-07T12:48:04.596Z,3.70
2022-09-07T12:50:56.476Z,3.10
2022-09-07T12:53:36.793Z,3.73
2022-09-07T12:56:15.826Z,3.27
2022-09-07T12:58:51.075Z,3.10
2022-09-07T13:01:44.180Z,3.40
2022-09-07T13:04:32.150Z,3.20
2022-09-07T13:07:17.077Z,3.17
2022-09-07T13:09:57.999Z,3.03
2022-09-07T13:12:54.198Z,3.43
2022-09-07T13:15:51.160Z,3.50
2022-09-07T13:18:29.786Z,3.30
2022-09-07T13:21:08.287Z,3.00
2022-09-07T13:23:37.827Z,3.50
2022-09-07T13:26:09.123Z,3.70
2022-09-07T13:28:38.476Z,3.07
2022-09-07T13:31:13.995Z,3.70
2022-09-07T13:33:50.421Z,3.33
2022-09-07T13:36:25.827Z,3.03
2022-09-07T13:38:54.981Z,3.00
2022-09-07T13:41:32.133Z,2.97
2022-09-07T13:44:02.296Z,3.17
2022-09-07T13:46:35.048Z,2.73
2022-09-07T13:49:13.287Z,3.40
2022-09-07T13:51:55.922Z,3.23
2022-09-07T13:54:40.447Z,3.10
2022-09-07T13:57:27.601Z,3.20
2022-09-07T13:59:55.922Z,2.97
2022-09-07T14:02:35.967Z,3.77
2022-09-07T14:05:06.591Z,3.43
2022-09-07T14:07:33.175Z,3.17
2022-09-07T14:10:19.716Z,3.43
2022-09-07T14:12:50.589Z,3.50
2022-09-07T14:15:29.293Z,3.73
2022-09-07T14:18:34.613Z,3.20
2022-09-07T14:21:01.614Z,2.80
2022-09-07T14:23:32.638Z,3.50
2022-09-07T14:26:16.636Z,2.97
2022-09-07T14:28:46.024Z,3.07
2022-09-07T14:31:15.166Z,2.53
2022-09-07T14:33:52.775Z,2.90
2022-09-07T14:36:42.432Z,3.03
2022-09-07T14:39:11.876Z,3.07
2022-09-07T14:41:40.667Z,3.00
2022-09-07T14:44:26.199Z,2.60
2022-09-07T14:46:56.822Z,2.87
2022-09-07T14:49:24.736Z,2.90
2022-09-07T14:51:53.629Z,3.70
2022-09-07T14:54:27.789Z,2.87
2022-09-07T14:57:02.540Z,3.27
2022-09-07T14:59:42.687Z,2.87
2022-09-07T15:02:18.558Z,2.93
2022-09-07T15:05:20.574Z,2.90
2022-09-07T15:08:05.486Z,2.50
2022-09-07T15:10:36.887Z,2.57
2022-09-07T15:13:06.245Z,2.77
2022-09-07T15:15:39.600Z,2.60
2022-09-07T15:18:44.703Z,2.47
2022-09-07T15:21:11.448Z,3.10
2022-09-07T15:23:38.079Z,3.00
2022-09-07T15:26:05.350Z,2.87
2022-09-07T15:34:20.060Z,2.90
2022-09-07T15:36:52.223Z,3.40
2022-09-07T15:39:25.783Z,3.33
2022-09-07T15:41:52.979Z,2.70
2022-09-07T15:44:25.012Z,3.07
2022-09-07T15:49:49.288Z,3.27
2022-09-07T15:52:19.738Z,3.30
2022-09-07T15:54:46.774Z,3.27
2022-09-07T16:00:00.088Z,3.50
2022-09-07T16:05:13.361Z,3.10
2022-09-07T16:10:31.060Z,3.70
2022-09-07T16:13:02.916Z,3.53
2022-09-07T16:15:45.209Z,6.03
2022-09-07T16:18:16.601Z,6.50
2022-09-07T16:20:44.007Z,8.37
2022-09-07T16:23:13.675Z,5.97
2022-09-07T16:25:42.387Z,5.00
2022-09-07T16:28:09.817Z,5.43
2022-09-07T16:30:39.692Z,6.23
2022-09-07T16:33:06.487Z,5.00
2022-09-07T16:35:33.285Z,5.20
2022-09-07T16:40:46.714Z,4.00
2022-09-07T16:43:13.322Z,4.13
2022-09-07T16:48:26.650Z,3.83
2022-09-07T16:51:01.094Z,4.37
2022-09-07T16:53:30.942Z,4.20
2022-09-07T16:56:05.229Z,4.20
2022-09-07T16:58:37.540Z,3.80
2022-09-07T17:01:05.874Z,3.90
2022-09-07T17:03:32.933Z,4.40
2022-09-07T17:06:01.492Z,4.20
2022-09-07T17:08:28.372Z,5.07
2022-09-07T17:50:29.512Z,4.53
2022-09-07T17:52:56.183Z,4.50
2022-09-07T17:55:24.470Z,4.47
2022-09-07T17:57:51.137Z,4.40
2022-09-07T18:00:17.766Z,11.83
2022-09-07T18:02:44.515Z,10.40
2022-09-07T18:05:11.290Z,6.10
2022-09-07T18:07:37.985Z,11.90
2022-09-07T18:10:04.979Z,5.30
2022-09-07T18:12:32.718Z,6.93
2022-09-07T18:14:59.704Z,5.63
2022-09-07T18:17:27.570Z,6.07
2022-09-07T18:19:54.748Z,7.60
2022-09-07T18:22:21.514Z,6.40
2022-09-07T18:24:48.337Z,6.80
2022-09-07T18:27:14.986Z,6.80
2022-09-07T18:29:43.428Z,6.23
2022-09-07T18:32:10.536Z,7.87
2022-09-07T18:34:41.173Z,8.77
2022-09-07T18:37:08.309Z,8.83
2022-09-07T18:39:35.661Z,8.13
2022-09-07T18:42:02.664Z,7.70
2022-09-07T18:47:27.654Z,8.37
2022-09-07T18:49:55.235Z,8.80
2022-09-07T18:55:10.562Z,8.73
2022-09-07T18:57:37.718Z,9.00
2022-09-07T19:00:07.282Z,8.77
2022-09-07T19:02:34.786Z,9.10
2022-09-07T19:07:48.500Z,7.97
2022-09-07T19:10:16.929Z,8.47
2022-09-07T19:12:45.857Z,8.00
2022-09-07T19:15:13.435Z,7.50
2022-09-07T19:17:46.234Z,6.57
2022-09-07T19:20:12.977Z,6.23
2022-09-07T19:22:39.691Z,6.20
2022-09-07T19:25:06.653Z,6.10
2022-09-07T19:27:33.470Z,6.03
2022-09-07T19:30:00.430Z,6.20
2022-09-07T19:32:27.487Z,5.40
2022-09-07T19:34:55.422Z,4.87
2022-09-07T19:37:25.780Z,5.23
2022-09-07T19:39:56.487Z,4.97
2022-09-07T19:42:23.877Z,4.90
2022-09-07T19:44:50.914Z,4.40
2022-09-07T19:47:17.910Z,4.33
2022-09-07T19:49:44.636Z,3.80
2022-09-07T19:52:11.776Z,4.40
2022-09-07T19:54:38.530Z,4.00
2022-09-07T19:57:05.784Z,4.00
2022-09-07T19:59:32.509Z,4.20
2022-09-07T20:02:00.626Z,4.30
2022-09-07T20:04:28.307Z,4.20
2022-09-07T20:06:55.024Z,3.90
2022-09-07T20:09:21.705Z,4.40
2022-09-07T20:11:48.659Z,4.00
2022-09-07T20:14:16.616Z,4.13
2022-09-07T20:16:43.760Z,4.43
2022-09-07T20:19:13.697Z,4.20
2022-09-07T20:21:40.494Z,3.97
2022-09-07T20:24:07.144Z,4.33
2022-09-07T20:26:33.867Z,3.83
2022-09-07T20:31:47.567Z,3.57
2022-09-07T20:34:14.426Z,3.93
2022-09-07T20:36:41.423Z,3.97
2022-09-07T20:39:08.039Z,3.83
2022-09-07T20:41:34.894Z,3.80
2022-09-07T20:44:03.284Z,4.63
2022-09-07T20:46:30.876Z,4.53
2022-09-07T20:48:58.460Z,3.63
2022-09-07T20:51:25.821Z,3.63
2022-09-07T20:53:53.040Z,4.00
2022-09-07T20:56:28.027Z,3.77
2022-09-07T20:59:00.391Z,3.90
2022-09-07T21:01:28.270Z,4.07
2022-09-07T21:03:57.557Z,3.73
2022-09-07T21:06:25.536Z,4.10
2022-09-07T21:08:52.779Z,3.90
2022-09-07T21:11:38.519Z,3.77
2022-09-07T21:14:08.423Z,3.60
2022-09-07T21:16:36.018Z,3.90
2022-09-07T21:21:56.252Z,3.80
2022-09-07T21:24:23.915Z,3.80
2022-09-07T21:26:51.284Z,4.17
2022-09-07T21:29:21.910Z,3.83
2022-09-07T21:31:49.047Z,4.17
2022-09-07T21:34:16.702Z,4.00
2022-09-07T21:36:43.684Z,4.03
2022-09-07T21:42:06.442Z,4.07
2022-09-07T21:44:33.071Z,4.03
2022-09-07T21:46:59.834Z,3.90
2022-09-07T21:49:26.521Z,4.07
2022-09-07T21:51:53.134Z,4.13
2022-09-07T21:54:19.852Z,4.00
2022-09-07T21:56:47.179Z,3.87
2022-09-07T21:59:13.798Z,3.77
2022-09-07T22:01:41.032Z,3.60
2022-09-07T22:04:07.775Z,3.87
2022-09-07T22:06:35.045Z,4.10
2022-09-07T22:09:02.431Z,4.23
2022-09-07T22:11:32.824Z,4.10
2022-09-07T22:14:01.986Z,4.30
2022-09-07T22:16:29.565Z,4.33
2022-09-07T22:18:56.369Z,4.23
2022-09-07T22:21:25.640Z,4.40
2022-09-07T22:23:55.938Z,3.90
2022-09-07T22:26:25.807Z,4.53
2022-09-07T22:28:52.843Z,4.20
2022-09-07T22:31:22.534Z,3.90
2022-09-07T22:33:50.850Z,3.73
2022-09-07T22:36:23.124Z,4.73
2022-09-07T22:38:53.293Z,3.67
2022-09-07T22:41:22.978Z,4.07
2022-09-07T22:43:51.085Z,3.87
2022-09-07T22:46:22.326Z,4.03
2022-09-07T22:48:49.582Z,3.70
2022-09-07T22:51:17.067Z,4.20
2022-09-07T22:53:44.574Z,3.90
2022-09-07T22:56:18.639Z,4.50
2022-09-07T22:58:54.292Z,3.77
2022-09-07T23:01:22.055Z,4.37
2022-09-07T23:03:49.539Z,3.53
2022-09-07T23:06:22.735Z,4.43
2022-09-07T23:08:51.682Z,3.87
2022-09-07T23:11:19.607Z,4.20
2022-09-07T23:13:49.599Z,4.60
2022-09-07T23:16:16.230Z,4.10
2022-09-07T23:18:45.166Z,3.97
2022-09-07T23:21:12.215Z,4.10
2022-09-07T23:23:38.956Z,4.20
2022-09-07T23:28:58.915Z,4.03
2022-09-07T23:31:26.619Z,3.87
2022-09-07T23:33:53.470Z,4.47
2022-09-07T23:36:20.508Z,4.57
2022-09-07T23:38:47.409Z,4.07
2022-09-07T23:41:14.825Z,3.67
2022-09-07T23:43:41.827Z,3.67
2022-09-07T23:46:09.776Z,4.07
2022-09-07T23:48:36.573Z,4.30
2022-09-07T23:53:53.743Z,3.80
2022-09-07T23:56:20.873Z,3.97
2022-09-07T23:58:47.903Z,4.10
